createdAt,value
2023-05-14T00:02:01.825Z,9.21
2023-05-14T00:05:05.122Z,9.10
2023-05-14T00:08:07.722Z,9.22
2023-05-14T00:11:10.215Z,9.01
2023-05-14T00:14:12.605Z,9.07
2023-05-14T00:17:15.031Z,9.04
2023-05-14T00:20:17.541Z,8.98
2023-05-14T00:23:20.328Z,9.02
2023-05-14T00:26:22.846Z,8.99
2023-05-14T00:29:25.309Z,9.10
2023-05-14T00:32:27.836Z,9.21
2023-05-14T00:35:30.639Z,9.28
2023-05-14T00:38:33.072Z,9.40
2023-05-14T00:41:35.803Z,9.74
2023-05-14T00:44:38.259Z,10.05
2023-05-14T00:47:41.020Z,10.20
2023-05-14T00:50:43.728Z,10.35
2023-05-14T00:53:47.245Z,10.31
2023-05-14T00:56:50.529Z,10.27
2023-05-14T00:59:53.084Z,10.08
2023-05-14T01:02:55.720Z,10.13
2023-05-14T01:06:26.396Z,9.86
2023-05-14T01:09:46.337Z,9.66
2023-05-14T01:13:25.597Z,9.69
2023-05-14T01:16:29.106Z,9.56
2023-05-14T01:19:41.754Z,9.54
2023-05-14T01:22:44.175Z,9.40
2023-05-14T01:25:46.794Z,9.49
2023-05-14T01:28:49.706Z,9.44
2023-05-14T01:31:54.233Z,9.40
2023-05-14T01:34:58.608Z,9.43
2023-05-14T01:38:05.121Z,9.35
2023-05-14T01:41:07.630Z,9.24
2023-05-14T01:44:10.707Z,9.19
2023-05-14T01:47:13.440Z,9.21
2023-05-14T01:50:16.000Z,9.26
2023-05-14T01:53:18.392Z,9.06
2023-05-14T01:56:24.344Z,8.60
2023-05-14T01:59:26.859Z,8.56
2023-05-14T02:02:29.277Z,8.67
2023-05-14T02:05:31.747Z,8.57
2023-05-14T02:08:34.252Z,8.54
2023-05-14T02:11:36.730Z,8.46
2023-05-14T02:14:39.238Z,8.56
2023-05-14T02:17:41.713Z,8.31
2023-05-14T02:20:46.771Z,8.23
2023-05-14T02:23:50.218Z,8.18
2023-05-14T02:26:52.726Z,7.93
2023-05-14T02:29:56.655Z,8.03
2023-05-14T02:32:59.292Z,7.90
2023-05-14T02:36:01.742Z,7.82
2023-05-14T02:39:04.848Z,7.59
2023-05-14T02:42:07.553Z,7.56
2023-05-14T02:45:10.358Z,7.37
2023-05-14T02:48:12.931Z,7.33
2023-05-14T02:51:16.382Z,7.09
2023-05-14T02:54:18.800Z,7.15
2023-05-14T02:57:21.341Z,7.15
2023-05-14T03:00:24.271Z,7.26
2023-05-14T03:03:27.289Z,7.45
2023-05-14T03:06:31.230Z,7.58
2023-05-14T03:09:34.635Z,7.41
2023-05-14T03:12:38.572Z,7.62
2023-05-14T03:15:41.164Z,7.69
2023-05-14T03:18:43.702Z,7.75
2023-05-14T03:21:46.265Z,7.83
2023-05-14T03:24:48.764Z,7.93
2023-05-14T03:27:51.189Z,8.05
2023-05-14T03:30:53.739Z,8.16
2023-05-14T03:33:56.183Z,8.32
2023-05-14T03:36:58.576Z,8.66
2023-05-14T03:40:00.921Z,8.85
2023-05-14T03:43:03.338Z,8.97
2023-05-14T03:46:05.792Z,9.30
2023-05-14T03:49:08.952Z,9.44
2023-05-14T03:52:11.443Z,9.67
2023-05-14T03:55:13.959Z,9.84
2023-05-14T03:58:17.695Z,10.02
2023-05-14T04:01:20.140Z,10.26
2023-05-14T04:04:22.588Z,10.50
2023-05-14T04:07:25.013Z,10.75
2023-05-14T04:10:29.133Z,11.02
2023-05-14T04:13:31.604Z,11.15
2023-05-14T04:16:34.406Z,11.27
2023-05-14T04:19:36.917Z,11.52
2023-05-14T04:22:39.344Z,11.57
2023-05-14T04:25:42.193Z,11.79
2023-05-14T04:28:44.630Z,11.95
2023-05-14T04:31:47.152Z,11.95
2023-05-14T04:34:49.583Z,12.12
2023-05-14T04:37:52.062Z,11.98
2023-05-14T04:40:54.513Z,11.95
2023-05-14T04:43:57.094Z,12.03
2023-05-14T04:46:59.462Z,12.26
2023-05-14T04:50:02.352Z,12.28
2023-05-14T04:53:04.872Z,12.19
2023-05-14T04:56:07.477Z,12.39
2023-05-14T04:59:09.893Z,12.59
2023-05-14T05:02:12.268Z,12.61
2023-05-14T05:05:14.718Z,12.68
2023-05-14T05:08:17.080Z,12.71
2023-05-14T05:11:19.511Z,12.67
2023-05-14T05:14:21.985Z,12.77
2023-05-14T05:17:25.107Z,12.64
2023-05-14T05:20:28.329Z,12.74
2023-05-14T05:23:30.718Z,12.88
2023-05-14T05:26:33.244Z,12.99
2023-05-14T05:29:35.717Z,13.06
2023-05-14T05:32:38.285Z,13.06
2023-05-14T05:35:40.958Z,13.10
2023-05-14T05:38:43.484Z,13.22
2023-05-14T05:41:45.870Z,13.50
2023-05-14T05:44:48.339Z,13.63
2023-05-14T05:47:50.930Z,13.65
2023-05-14T05:50:53.409Z,14.02
2023-05-14T05:53:56.008Z,14.07
2023-05-14T05:56:59.225Z,14.50
2023-05-14T06:00:07.973Z,14.68
2023-05-14T06:03:15.205Z,14.93
2023-05-14T06:06:17.681Z,14.97
2023-05-14T06:09:20.148Z,15.14
2023-05-14T06:12:22.578Z,15.14
2023-05-14T06:15:25.043Z,15.12
2023-05-14T06:18:27.500Z,15.15
2023-05-14T06:21:29.904Z,15.34
2023-05-14T06:24:33.019Z,15.56
2023-05-14T06:27:35.388Z,15.30
2023-05-14T06:30:37.820Z,15.29
2023-05-14T06:33:40.561Z,15.44
2023-05-14T06:36:43.029Z,15.40
2023-05-14T06:39:50.141Z,15.28
2023-05-14T06:42:52.659Z,15.42
2023-05-14T06:45:55.622Z,15.39
2023-05-14T06:48:59.546Z,15.48
2023-05-14T06:52:02.364Z,15.83
2023-05-14T06:55:05.085Z,15.97
2023-05-14T06:58:08.281Z,16.11
2023-05-14T07:01:10.742Z,16.25
2023-05-14T07:04:13.226Z,15.82
2023-05-14T07:07:18.345Z,16.30
2023-05-14T07:10:20.926Z,16.55
2023-05-14T07:13:24.943Z,16.01
2023-05-14T07:16:28.841Z,15.77
2023-05-14T07:19:31.367Z,15.64
2023-05-14T07:22:33.903Z,16.16
2023-05-14T07:25:36.388Z,16.47
2023-05-14T07:28:38.901Z,16.45
2023-05-14T07:31:41.347Z,16.45
2023-05-14T07:34:43.875Z,16.72
2023-05-14T07:37:46.392Z,16.49
2023-05-14T07:40:48.840Z,16.64
2023-05-14T07:43:51.352Z,16.91
2023-05-14T07:46:53.843Z,17.07
2023-05-14T07:49:59.328Z,17.66
2023-05-14T07:53:01.802Z,17.87
2023-05-14T07:56:04.534Z,17.37
2023-05-14T07:59:07.471Z,16.98
2023-05-14T08:02:13.119Z,17.82
2023-05-14T08:05:15.933Z,17.36
2023-05-14T08:08:18.384Z,17.56
2023-05-14T08:11:22.397Z,17.68
2023-05-14T08:14:24.845Z,17.70
2023-05-14T08:17:27.401Z,18.28
2023-05-14T08:20:31.199Z,18.37
2023-05-14T08:23:33.684Z,17.86
2023-05-14T08:26:36.085Z,17.87
2023-05-14T08:29:38.526Z,17.72
2023-05-14T08:32:41.248Z,17.83
2023-05-14T08:35:43.800Z,17.68
2023-05-14T08:38:46.263Z,17.59
2023-05-14T08:41:48.747Z,17.59
2023-05-14T08:44:59.148Z,17.57
2023-05-14T08:48:05.644Z,18.15
2023-05-14T08:51:08.278Z,17.98
2023-05-14T08:54:10.780Z,18.32
2023-05-14T08:57:13.323Z,17.89
2023-05-14T09:00:15.988Z,17.64
2023-05-14T09:03:18.755Z,18.12
2023-05-14T09:06:22.297Z,18.00
2023-05-14T09:09:24.829Z,18.51
2023-05-14T09:12:27.343Z,18.28
2023-05-14T09:15:30.605Z,18.41
2023-05-14T09:18:33.221Z,18.33
2023-05-14T09:21:35.822Z,18.22
2023-05-14T09:24:41.882Z,18.62
2023-05-14T09:27:50.166Z,18.60
2023-05-14T09:30:52.748Z,18.41
2023-05-14T09:33:55.285Z,18.55
2023-05-14T09:37:08.536Z,18.54
2023-05-14T09:40:12.034Z,18.62
2023-05-14T09:43:14.959Z,18.65
2023-05-14T09:46:17.824Z,18.78
2023-05-14T09:49:20.646Z,18.90
2023-05-14T09:52:26.459Z,19.10
2023-05-14T09:55:29.362Z,19.33
2023-05-14T09:58:31.890Z,19.14
2023-05-14T10:01:34.608Z,19.41
2023-05-14T10:04:37.490Z,19.37
2023-05-14T10:07:48.286Z,19.71
2023-05-14T10:10:59.075Z,19.87
2023-05-14T10:14:08.683Z,20.00
2023-05-14T10:17:18.296Z,20.22
2023-05-14T10:20:21.074Z,20.24
2023-05-14T10:23:23.867Z,20.22
2023-05-14T10:26:26.583Z,20.20
2023-05-14T10:29:34.213Z,19.92
2023-05-14T10:32:38.025Z,20.04
2023-05-14T10:36:06.132Z,19.99
2023-05-14T10:39:09.144Z,19.74
2023-05-14T10:42:16.626Z,20.00
2023-05-14T10:45:19.138Z,20.05
2023-05-14T10:48:21.879Z,20.03
2023-05-14T10:51:24.428Z,20.34
2023-05-14T10:54:28.211Z,20.47
2023-05-14T10:57:31.697Z,20.74
2023-05-14T11:00:34.433Z,20.74
2023-05-14T11:03:43.020Z,20.70
2023-05-14T11:06:47.442Z,20.91
2023-05-14T11:09:51.023Z,20.86
2023-05-14T11:12:53.400Z,20.91
2023-05-14T11:15:56.108Z,20.94
2023-05-14T11:19:03.509Z,20.89
2023-05-14T11:22:06.645Z,20.89
2023-05-14T11:25:10.165Z,20.71
2023-05-14T11:28:12.565Z,20.77
2023-05-14T11:31:15.238Z,21.08
2023-05-14T11:34:17.681Z,21.08
2023-05-14T11:37:20.370Z,21.03
2023-05-14T11:40:22.968Z,20.78
2023-05-14T11:43:29.465Z,21.09
2023-05-14T11:46:32.087Z,20.86
2023-05-14T11:49:37.479Z,21.30
2023-05-14T11:52:41.372Z,21.03
2023-05-14T11:55:43.899Z,20.93
2023-05-14T11:58:49.420Z,20.76
2023-05-14T12:01:54.848Z,20.82
2023-05-14T12:04:57.564Z,20.79
2023-05-14T12:07:59.929Z,20.32
2023-05-14T12:11:02.377Z,20.42
2023-05-14T12:14:30.858Z,20.42
2023-05-14T12:17:33.410Z,20.34
2023-05-14T12:20:36.140Z,20.42
2023-05-14T12:23:38.937Z,20.57
2023-05-14T12:26:46.609Z,20.47
2023-05-14T12:29:48.980Z,20.53
2023-05-14T12:32:53.057Z,20.52
2023-05-14T12:36:09.921Z,20.46
2023-05-14T12:39:22.586Z,20.27
2023-05-14T12:42:25.023Z,20.33
2023-05-14T12:45:27.450Z,20.16
2023-05-14T12:48:29.986Z,20.22
2023-05-14T12:51:32.495Z,20.17
2023-05-14T12:54:34.871Z,20.09
2023-05-14T12:57:39.320Z,20.01
2023-05-14T13:00:42.251Z,19.85
2023-05-14T13:03:44.750Z,19.78
2023-05-14T13:06:47.548Z,19.74
2023-05-14T13:09:49.986Z,19.81
2023-05-14T13:12:52.782Z,19.87
2023-05-14T13:15:55.657Z,19.95
2023-05-14T13:18:58.332Z,20.20
2023-05-14T13:22:00.847Z,20.23
2023-05-14T13:25:03.459Z,20.19
2023-05-14T13:28:05.981Z,19.91
2023-05-14T13:31:12.618Z,19.94
2023-05-14T13:34:15.118Z,20.16
2023-05-14T13:37:17.614Z,19.90
2023-05-14T13:40:20.085Z,20.06
2023-05-14T13:43:22.463Z,19.92
2023-05-14T13:46:25.005Z,20.03
2023-05-14T13:49:27.476Z,20.06
2023-05-14T13:52:30.040Z,19.98
2023-05-14T13:55:32.473Z,19.87
2023-05-14T13:58:35.023Z,19.84
2023-05-14T14:01:37.524Z,19.93
2023-05-14T14:04:40.014Z,19.75
2023-05-14T14:07:42.747Z,19.51
2023-05-14T14:10:45.343Z,19.51
2023-05-14T14:13:47.917Z,19.39
2023-05-14T14:16:50.961Z,19.29
2023-05-14T14:19:53.511Z,18.85
2023-05-14T14:22:56.201Z,18.61
2023-05-14T14:25:58.679Z,18.53
2023-05-14T14:29:01.110Z,18.39
2023-05-14T14:32:04.271Z,18.38
2023-05-14T14:35:07.140Z,18.34
2023-05-14T14:38:09.679Z,18.41
2023-05-14T14:41:12.319Z,18.40
2023-05-14T14:44:14.767Z,18.32
2023-05-14T14:47:17.296Z,18.27
2023-05-14T14:50:19.825Z,17.79
2023-05-14T14:53:22.432Z,17.54
2023-05-14T14:56:26.982Z,17.31
2023-05-14T14:59:29.477Z,17.43
2023-05-14T15:02:32.042Z,17.23
2023-05-14T15:05:34.703Z,17.14
2023-05-14T15:08:37.350Z,16.90
2023-05-14T15:11:39.933Z,16.92
2023-05-14T15:14:42.392Z,16.84
2023-05-14T15:17:44.932Z,16.74
2023-05-14T15:20:47.390Z,16.41
2023-05-14T15:23:49.851Z,16.30
2023-05-14T15:26:53.388Z,16.20
2023-05-14T15:29:56.262Z,15.99
2023-05-14T15:32:58.744Z,16.03
2023-05-14T15:36:01.182Z,16.03
2023-05-14T15:39:03.652Z,16.06
2023-05-14T15:42:06.580Z,16.04
2023-05-14T15:45:10.435Z,16.05
2023-05-14T15:48:12.872Z,15.74
2023-05-14T15:51:15.431Z,15.73
2023-05-14T15:54:18.011Z,15.87
2023-05-14T15:57:20.451Z,15.74
2023-05-14T16:00:24.868Z,15.53
2023-05-14T16:03:27.666Z,15.58
2023-05-14T16:06:30.206Z,15.50
2023-05-14T16:09:33.735Z,15.48
2023-05-14T16:12:36.203Z,15.50
2023-05-14T16:15:39.887Z,15.45
2023-05-14T16:18:43.270Z,15.45
2023-05-14T16:21:45.733Z,15.43
2023-05-14T16:24:48.219Z,15.46
2023-05-14T16:27:50.787Z,15.24
2023-05-14T16:30:53.266Z,15.02
2023-05-14T16:33:55.833Z,14.93
2023-05-14T16:36:59.496Z,14.78
2023-05-14T16:40:02.129Z,14.47
2023-05-14T16:43:04.656Z,14.18
2023-05-14T16:46:07.128Z,14.17
2023-05-14T16:49:09.616Z,13.91
2023-05-14T16:52:12.067Z,13.86
2023-05-14T16:55:14.562Z,13.85
2023-05-14T16:58:17.035Z,13.97
2023-05-14T17:01:19.570Z,13.97
2023-05-14T17:04:22.789Z,13.95
2023-05-14T17:07:25.224Z,13.83
2023-05-14T17:10:27.742Z,13.91
2023-05-14T17:13:30.555Z,14.03
2023-05-14T17:16:33.049Z,14.00
2023-05-14T17:19:35.552Z,13.95
2023-05-14T17:22:38.096Z,14.07
2023-05-14T17:25:40.681Z,14.10
2023-05-14T17:28:45.489Z,14.18
2023-05-14T17:31:48.733Z,13.84
2023-05-14T17:34:51.376Z,13.63
2023-05-14T17:37:53.959Z,13.81
2023-05-14T17:40:56.480Z,13.92
2023-05-14T17:43:59.467Z,14.09
2023-05-14T17:47:03.182Z,14.01
2023-05-14T17:50:06.148Z,13.98
2023-05-14T17:53:08.759Z,14.05
2023-05-14T17:56:11.396Z,13.83
2023-05-14T17:59:13.861Z,13.83
2023-05-14T18:02:16.304Z,14.08
2023-05-14T18:05:20.934Z,14.02
2023-05-14T18:08:23.518Z,14.01
2023-05-14T18:11:26.524Z,14.10
2023-05-14T18:14:28.972Z,13.81
2023-05-14T18:17:31.457Z,13.56
2023-05-14T18:20:35.537Z,13.77
2023-05-14T18:23:38.206Z,13.73
2023-05-14T18:26:40.890Z,13.86
2023-05-14T18:29:43.926Z,13.96
2023-05-14T18:32:46.753Z,13.96
2023-05-14T18:35:49.268Z,13.92
2023-05-14T18:38:51.741Z,13.95
2023-05-14T18:41:55.122Z,13.78
2023-05-14T18:44:57.505Z,13.98
2023-05-14T18:48:00.164Z,13.87
2023-05-14T18:51:02.896Z,13.56
2023-05-14T18:54:05.399Z,13.28
2023-05-14T18:57:08.123Z,13.46
2023-05-14T19:00:11.171Z,13.30
2023-05-14T19:03:13.898Z,13.23
2023-05-14T19:06:17.861Z,13.41
2023-05-14T19:09:21.334Z,13.30
2023-05-14T19:12:24.047Z,13.14
2023-05-14T19:15:26.826Z,13.25
2023-05-14T19:18:29.787Z,13.06
2023-05-14T19:21:32.389Z,13.08
2023-05-14T19:24:35.138Z,12.94
2023-05-14T19:27:38.476Z,12.96
2023-05-14T19:30:41.376Z,13.05
2023-05-14T19:33:43.989Z,12.96
2023-05-14T19:36:46.638Z,12.89
2023-05-14T19:39:49.145Z,12.96
2023-05-14T19:42:51.646Z,12.94
2023-05-14T19:45:54.385Z,12.87
2023-05-14T19:48:56.999Z,12.91
2023-05-14T19:51:59.437Z,13.01
2023-05-14T19:55:01.920Z,12.99
2023-05-14T19:58:07.766Z,12.92
2023-05-14T20:01:10.258Z,12.91
2023-05-14T20:04:14.124Z,12.96
2023-05-14T20:07:17.205Z,12.94
2023-05-14T20:10:20.627Z,12.90
2023-05-14T20:13:25.056Z,12.85
2023-05-14T20:16:28.660Z,12.88
2023-05-14T20:19:31.260Z,12.86
2023-05-14T20:22:33.701Z,12.93
2023-05-14T20:25:36.149Z,12.85
2023-05-14T20:28:38.614Z,-141.96
2023-05-14T20:31:41.181Z,-141.96
2023-05-14T20:34:43.880Z,-141.96
2023-05-14T20:37:47.287Z,-141.96
2023-05-14T20:40:49.809Z,-141.96
2023-05-14T20:43:52.294Z,-141.96
2023-05-14T20:46:54.805Z,-141.96
2023-05-14T20:49:57.220Z,-141.96
2023-05-14T20:52:59.790Z,-141.96
2023-05-14T20:56:02.357Z,-141.96
2023-05-14T20:59:04.762Z,-141.96
2023-05-14T21:02:07.522Z,-141.96
2023-05-14T21:05:10.092Z,-141.96
2023-05-14T21:08:12.669Z,-141.96
2023-05-14T21:11:15.212Z,-141.96
2023-05-14T21:14:17.666Z,-141.96
2023-05-14T21:17:20.304Z,-141.96
2023-05-14T21:20:23.074Z,-141.96
2023-05-14T21:23:25.527Z,-141.96
2023-05-14T21:26:30.706Z,-141.96
2023-05-14T21:29:33.157Z,-141.96
2023-05-14T21:32:35.641Z,-141.96
2023-05-14T21:35:38.202Z,-141.96
2023-05-14T21:38:41.008Z,-141.96
2023-05-14T21:41:43.496Z,-141.96
2023-05-14T21:44:45.919Z,-141.96
2023-05-14T21:47:48.448Z,-141.96
2023-05-14T21:50:50.900Z,-141.96
2023-05-14T21:53:53.317Z,-141.96
2023-05-14T21:56:55.822Z,-141.96
2023-05-14T21:59:58.303Z,-141.96
2023-05-14T22:03:00.763Z,-141.96
2023-05-14T22:06:03.490Z,-141.96
2023-05-14T22:09:05.907Z,-141.96
2023-05-14T22:12:08.476Z,-141.96
2023-05-14T22:15:11.621Z,-141.96
2023-05-14T22:18:15.416Z,-141.96
2023-05-14T22:21:17.876Z,-141.96
2023-05-14T22:24:20.342Z,-141.96
2023-05-14T22:27:23.031Z,-141.96
2023-05-14T22:30:25.552Z,-141.96
2023-05-14T22:33:27.967Z,-141.96
2023-05-14T22:36:30.496Z,-141.96
2023-05-14T22:39:32.929Z,-141.96
2023-05-14T22:42:35.506Z,-141.96
2023-05-14T22:45:37.990Z,-141.96
2023-05-14T22:48:40.514Z,-141.96
2023-05-14T22:51:42.905Z,-141.96
2023-05-14T22:54:46.654Z,-141.96
2023-05-14T22:57:49.124Z,-141.96
2023-05-14T23:00:51.518Z,-141.96
2023-05-14T23:03:53.933Z,-141.96
2023-05-14T23:06:56.348Z,-141.96
2023-05-14T23:09:58.742Z,-141.96
2023-05-14T23:13:01.367Z,-141.96
2023-05-14T23:16:04.177Z,-141.96
2023-05-14T23:19:06.893Z,-141.96
2023-05-14T23:22:09.464Z,-141.96
2023-05-14T23:25:11.873Z,-141.96
2023-05-14T23:28:14.593Z,-141.96
2023-05-14T23:31:17.022Z,-141.96
2023-05-14T23:34:19.594Z,-141.96
2023-05-14T23:37:22.083Z,-141.96
2023-05-14T23:40:24.541Z,-141.96
2023-05-14T23:43:27.034Z,-141.96
2023-05-14T23:46:29.657Z,-141.96
2023-05-14T23:49:32.256Z,-141.96
2023-05-14T23:52:34.760Z,-141.96
2023-05-14T23:55:37.149Z,-141.96
2023-05-14T23:58:39.615Z,-141.96
